createdAt,value
2018-08-31T00:00:24.361Z,0.00
2018-08-31T00:01:24.395Z,0.00
2018-08-31T00:02:24.423Z,0.00
2018-08-31T00:03:24.447Z,0.00
2018-08-31T00:04:24.502Z,0.00
2018-08-31T00:05:45.531Z,0.00
2018-08-31T00:06:24.538Z,0.00
2018-08-31T00:07:24.551Z,0.00
2018-08-31T00:08:24.589Z,0.00
2018-08-31T00:09:24.610Z,0.00
2018-08-31T00:10:24.641Z,0.00
2018-08-31T00:11:45.678Z,0.00
2018-08-31T00:12:24.698Z,0.00
2018-08-31T00:13:24.726Z,0.00
2018-08-31T00:14:24.735Z,0.00
2018-08-31T00:15:24.778Z,0.00
2018-08-31T00:16:24.799Z,0.00
2018-08-31T00:17:45.843Z,0.00
2018-08-31T00:18:24.845Z,0.00
2018-08-31T00:19:24.962Z,0.00
2018-08-31T00:20:24.909Z,0.00
2018-08-31T00:21:24.927Z,0.00
2018-08-31T00:22:24.955Z,0.00
2018-08-31T00:23:46.009Z,0.00
2018-08-31T00:24:25.012Z,0.00
2018-08-31T00:25:25.030Z,0.00
2018-08-31T00:26:25.062Z,0.00
2018-08-31T00:27:25.098Z,0.00
2018-08-31T00:28:25.111Z,0.00
2018-08-31T00:29:46.171Z,0.00
2018-08-31T00:30:25.182Z,0.00
2018-08-31T00:31:25.257Z,0.00
2018-08-31T00:32:25.213Z,0.00
2018-08-31T00:33:25.246Z,0.00
2018-08-31T00:34:25.267Z,0.00
2018-08-31T00:35:46.321Z,0.00
2018-08-31T00:36:25.329Z,0.00
2018-08-31T00:37:25.351Z,0.00
2018-08-31T00:38:25.376Z,0.00
2018-08-31T00:39:25.403Z,0.00
2018-08-31T00:40:25.431Z,0.00
2018-08-31T00:41:46.470Z,0.00
2018-08-31T00:42:25.482Z,0.00
2018-08-31T00:43:25.524Z,0.00
2018-08-31T00:44:25.543Z,0.00
2018-08-31T00:45:25.559Z,0.00
2018-08-31T00:46:25.588Z,0.00
2018-08-31T00:47:46.680Z,0.00
2018-08-31T00:48:25.642Z,0.00
2018-08-31T00:49:25.683Z,0.00
2018-08-31T00:50:25.705Z,0.00
2018-08-31T00:51:25.724Z,0.00
2018-08-31T00:52:25.766Z,0.00
2018-08-31T00:53:46.795Z,0.00
2018-08-31T00:54:25.832Z,0.00
2018-08-31T00:55:25.829Z,0.00
2018-08-31T00:56:25.864Z,0.00
2018-08-31T00:57:25.964Z,0.00
2018-08-31T00:58:25.913Z,0.00
2018-08-31T00:59:46.948Z,0.00
2018-08-31T01:00:25.970Z,0.00
2018-08-31T01:01:25.988Z,0.00
2018-08-31T01:02:26.008Z,0.00
2018-08-31T01:03:26.050Z,0.00
2018-08-31T01:04:26.060Z,0.00
2018-08-31T01:05:47.108Z,0.00
2018-08-31T01:06:26.116Z,0.00
2018-08-31T01:07:26.142Z,0.00
2018-08-31T01:08:26.197Z,0.00
2018-08-31T01:09:26.196Z,0.00
2018-08-31T01:10:26.232Z,0.00
2018-08-31T01:11:47.263Z,0.00
2018-08-31T01:12:26.298Z,0.00
2018-08-31T01:13:26.325Z,0.00
2018-08-31T01:14:26.330Z,0.00
2018-08-31T01:15:26.362Z,0.00
2018-08-31T01:16:26.390Z,0.00
2018-08-31T01:17:47.430Z,0.00
2018-08-31T01:18:26.431Z,0.00
2018-08-31T01:19:26.489Z,0.00
2018-08-31T01:20:26.486Z,0.00
2018-08-31T01:21:26.531Z,0.00
2018-08-31T01:22:26.543Z,0.00
2018-08-31T01:23:47.586Z,0.00
2018-08-31T01:24:26.595Z,0.00
2018-08-31T01:25:26.616Z,0.00
2018-08-31T01:26:26.655Z,0.00
2018-08-31T01:27:26.667Z,0.00
2018-08-31T01:28:26.697Z,0.00
2018-08-31T01:29:47.780Z,0.00
2018-08-31T01:30:26.822Z,0.00
2018-08-31T01:31:26.779Z,0.00
2018-08-31T01:32:26.799Z,0.00
2018-08-31T01:33:26.828Z,0.00
2018-08-31T01:34:26.856Z,0.00
2018-08-31T01:35:47.918Z,0.00
2018-08-31T01:36:26.903Z,0.00
2018-08-31T01:37:26.939Z,0.00
2018-08-31T01:38:26.962Z,0.00
2018-08-31T01:39:26.984Z,0.00
2018-08-31T01:40:27.020Z,0.00
2018-08-31T01:41:48.063Z,0.00
2018-08-31T01:42:27.086Z,0.00
2018-08-31T01:43:27.104Z,0.00
2018-08-31T01:44:27.120Z,0.00
2018-08-31T01:45:27.144Z,0.00
2018-08-31T01:46:27.211Z,0.00
2018-08-31T01:47:48.215Z,0.00
2018-08-31T01:48:27.233Z,0.00
2018-08-31T01:49:27.261Z,0.00
2018-08-31T01:50:27.283Z,0.00
2018-08-31T01:51:27.307Z,0.00
2018-08-31T01:52:27.330Z,0.00
2018-08-31T01:53:48.405Z,0.00
2018-08-31T01:54:27.378Z,0.00
2018-08-31T01:55:27.405Z,0.00
2018-08-31T01:56:27.437Z,0.00
2018-08-31T01:57:27.455Z,0.00
2018-08-31T01:58:27.555Z,0.00
2018-08-31T01:59:48.543Z,0.00
2018-08-31T02:00:27.543Z,0.00
2018-08-31T02:01:27.564Z,0.00
2018-08-31T02:02:27.620Z,0.00
2018-08-31T02:03:27.638Z,0.00
2018-08-31T02:04:27.654Z,0.00
2018-08-31T02:05:48.687Z,0.00
2018-08-31T02:06:27.698Z,0.00
2018-08-31T02:07:27.750Z,0.00
2018-08-31T02:08:27.770Z,0.00
2018-08-31T02:09:27.797Z,0.00
2018-08-31T02:10:27.798Z,0.00
2018-08-31T02:11:48.853Z,0.00
2018-08-31T02:12:27.861Z,0.00
2018-08-31T02:13:27.881Z,0.00
2018-08-31T02:14:27.921Z,0.00
2018-08-31T02:15:27.932Z,0.00
2018-08-31T02:16:27.978Z,0.00
2018-08-31T02:17:49.001Z,0.00
2018-08-31T02:18:28.013Z,0.00
2018-08-31T02:19:28.035Z,0.00
2018-08-31T02:20:28.075Z,0.00
2018-08-31T02:21:28.098Z,0.00
2018-08-31T02:22:28.115Z,0.00
2018-08-31T02:23:49.154Z,0.00
2018-08-31T02:24:28.166Z,0.00
2018-08-31T02:25:29.097Z,0.00
2018-08-31T02:26:28.218Z,0.00
2018-08-31T02:27:28.249Z,0.00
2018-08-31T02:28:28.273Z,0.00
2018-08-31T02:29:49.323Z,0.00
2018-08-31T02:30:28.343Z,0.00
2018-08-31T02:31:28.352Z,0.00
2018-08-31T02:32:28.380Z,0.00
2018-08-31T02:33:28.401Z,0.00
2018-08-31T02:34:28.437Z,0.00
2018-08-31T02:35:49.474Z,0.00
2018-08-31T02:36:28.591Z,0.00
2018-08-31T02:37:28.521Z,0.00
2018-08-31T02:38:28.534Z,0.00
2018-08-31T02:39:28.571Z,0.00
2018-08-31T02:40:28.595Z,0.00
2018-08-31T02:41:49.632Z,0.00
2018-08-31T02:42:28.642Z,0.00
2018-08-31T02:43:28.667Z,0.00
2018-08-31T02:44:28.685Z,0.00
2018-08-31T02:45:28.743Z,0.00
2018-08-31T02:46:28.757Z,0.00
2018-08-31T02:47:49.787Z,0.00
2018-08-31T02:48:28.795Z,0.00
2018-08-31T02:49:28.823Z,0.00
2018-08-31T02:50:28.853Z,0.00
2018-08-31T02:51:28.872Z,0.00
2018-08-31T02:52:28.896Z,0.00
2018-08-31T02:53:49.940Z,0.00
2018-08-31T02:54:28.961Z,0.00
2018-08-31T02:55:28.974Z,0.00
2018-08-31T02:56:29.003Z,0.00
2018-08-31T02:57:29.044Z,0.00
2018-08-31T02:58:29.062Z,0.00
2018-08-31T02:59:50.118Z,0.00
2018-08-31T03:00:29.112Z,0.00
2018-08-31T03:01:29.137Z,0.00
2018-08-31T03:02:29.174Z,0.00
2018-08-31T03:03:29.206Z,0.00
2018-08-31T03:04:29.209Z,0.00
2018-08-31T03:05:50.253Z,0.00
2018-08-31T03:06:29.262Z,0.00
2018-08-31T03:07:29.295Z,0.00
2018-08-31T03:08:29.323Z,0.00
2018-08-31T03:09:29.345Z,0.00
2018-08-31T03:10:29.366Z,0.00
2018-08-31T03:11:50.413Z,0.00
2018-08-31T03:12:29.427Z,0.00
2018-08-31T03:13:29.445Z,0.00
2018-08-31T03:14:29.477Z,0.00
2018-08-31T03:15:29.506Z,0.00
2018-08-31T03:16:29.524Z,0.00
2018-08-31T03:17:50.727Z,0.00
2018-08-31T03:18:29.576Z,0.00
2018-08-31T03:19:29.615Z,0.00
2018-08-31T03:20:29.638Z,0.00
2018-08-31T03:21:29.695Z,0.00
2018-08-31T03:22:29.688Z,0.00
2018-08-31T03:23:50.731Z,0.00
2018-08-31T03:24:29.732Z,0.00
2018-08-31T03:25:29.764Z,0.00
2018-08-31T03:26:29.796Z,0.00
2018-08-31T03:27:29.810Z,0.00
2018-08-31T03:28:29.839Z,0.00
2018-08-31T03:29:50.885Z,0.00
2018-08-31T03:30:29.896Z,0.00
2018-08-31T03:31:29.910Z,0.00
2018-08-31T03:32:29.981Z,0.00
2018-08-31T03:33:29.963Z,0.00
2018-08-31T03:34:29.992Z,0.00
2018-08-31T03:35:51.029Z,0.00
2018-08-31T03:36:30.042Z,0.00
2018-08-31T03:37:30.071Z,0.00
2018-08-31T03:38:30.097Z,0.00
2018-08-31T03:39:30.126Z,0.00
2018-08-31T03:40:31.117Z,0.00
2018-08-31T03:41:51.190Z,0.00
2018-08-31T03:42:30.238Z,0.00
2018-08-31T03:43:30.222Z,0.00
2018-08-31T03:44:30.265Z,0.00
2018-08-31T03:45:30.275Z,0.00
2018-08-31T03:46:30.309Z,0.00
2018-08-31T03:47:51.349Z,0.00
2018-08-31T03:48:30.356Z,0.00
2018-08-31T03:49:30.385Z,0.00
2018-08-31T03:50:30.403Z,0.00
2018-08-31T03:51:30.469Z,0.00
2018-08-31T03:52:30.458Z,0.00
2018-08-31T03:53:51.504Z,0.00
2018-08-31T03:54:30.509Z,0.00
2018-08-31T03:55:30.552Z,0.00
2018-08-31T03:56:30.572Z,0.00
2018-08-31T03:57:30.591Z,0.00
2018-08-31T03:58:30.620Z,0.00
2018-08-31T03:59:51.657Z,0.00
2018-08-31T04:00:30.673Z,0.00
2018-08-31T04:01:30.708Z,4.00
2018-08-31T04:02:30.857Z,4.00
2018-08-31T04:03:30.750Z,0.00
2018-08-31T04:04:30.820Z,0.00
2018-08-31T04:05:51.818Z,4.00
2018-08-31T04:06:30.829Z,4.00
2018-08-31T04:07:30.849Z,4.00
2018-08-31T04:08:30.881Z,0.00
2018-08-31T04:09:30.895Z,4.00
2018-08-31T04:10:30.933Z,4.00
2018-08-31T04:11:51.968Z,8.00
2018-08-31T04:12:30.979Z,4.00
2018-08-31T04:13:31.013Z,8.00
2018-08-31T04:14:31.030Z,4.00
2018-08-31T04:15:31.069Z,8.00
2018-08-31T04:16:31.080Z,8.00
2018-08-31T04:17:52.142Z,8.00
2018-08-31T04:18:31.267Z,8.00
2018-08-31T04:19:31.169Z,8.00
2018-08-31T04:20:31.222Z,8.00
2018-08-31T04:21:31.224Z,12.00
2018-08-31T04:22:31.247Z,12.00
2018-08-31T04:23:52.293Z,12.00
2018-08-31T04:24:31.300Z,12.00
2018-08-31T04:25:31.321Z,12.00
2018-08-31T04:26:31.346Z,12.00
2018-08-31T04:27:31.369Z,12.00
2018-08-31T04:28:31.432Z,20.00
2018-08-31T04:29:52.445Z,20.00
2018-08-31T04:30:31.451Z,20.00
2018-08-31T04:31:31.465Z,20.00
2018-08-31T04:32:31.509Z,20.00
2018-08-31T04:33:31.529Z,24.00
2018-08-31T04:34:31.556Z,24.00
2018-08-31T04:35:52.590Z,24.00
2018-08-31T04:36:31.604Z,24.00
2018-08-31T04:37:31.626Z,28.00
2018-08-31T04:38:31.659Z,28.00
2018-08-31T04:39:32.689Z,32.00
2018-08-31T04:40:31.727Z,32.00
2018-08-31T04:41:52.763Z,32.00
2018-08-31T04:42:31.756Z,36.00
2018-08-31T04:43:31.787Z,36.00
2018-08-31T04:44:31.871Z,36.00
2018-08-31T04:45:31.842Z,40.00
2018-08-31T04:46:31.891Z,40.00
2018-08-31T04:47:52.918Z,40.00
2018-08-31T04:48:31.926Z,40.00
2018-08-31T04:49:31.942Z,44.00
2018-08-31T04:50:32.017Z,48.00
2018-08-31T04:51:31.989Z,48.00
2018-08-31T04:52:32.131Z,48.00
2018-08-31T04:53:53.085Z,52.00
2018-08-31T04:54:32.071Z,52.00
2018-08-31T04:55:32.151Z,52.00
2018-08-31T04:56:32.122Z,56.00
2018-08-31T04:57:32.186Z,60.00
2018-08-31T04:58:32.166Z,60.00
2018-08-31T04:59:53.221Z,64.00
2018-08-31T05:00:32.220Z,64.00
2018-08-31T05:01:32.255Z,68.00
2018-08-31T05:02:32.272Z,68.00
2018-08-31T05:03:32.304Z,68.00
2018-08-31T05:04:32.330Z,72.00
2018-08-31T05:05:53.368Z,72.00
2018-08-31T05:06:33.112Z,76.00
2018-08-31T05:07:32.411Z,76.00
2018-08-31T05:08:32.519Z,80.00
2018-08-31T05:09:32.454Z,84.00
2018-08-31T05:10:32.512Z,88.00
2018-08-31T05:11:53.536Z,92.00
2018-08-31T05:12:32.543Z,96.00
2018-08-31T05:13:32.550Z,100.00
2018-08-31T05:14:32.584Z,100.00
2018-08-31T05:15:32.624Z,104.00
2018-08-31T05:16:32.635Z,108.00
2018-08-31T05:17:53.672Z,108.00
2018-08-31T05:18:32.686Z,116.00
2018-08-31T05:19:32.738Z,116.00
2018-08-31T05:20:32.742Z,120.00
2018-08-31T05:21:32.781Z,120.00
2018-08-31T05:22:32.869Z,124.00
2018-08-31T05:23:53.834Z,128.00
2018-08-31T05:24:32.837Z,128.00
2018-08-31T05:25:32.867Z,116.00
2018-08-31T05:26:32.895Z,116.00
2018-08-31T05:27:32.925Z,120.00
2018-08-31T05:28:33.065Z,124.00
2018-08-31T05:29:54.006Z,124.00
2018-08-31T05:30:33.003Z,148.00
2018-08-31T05:31:33.023Z,152.00
2018-08-31T05:32:33.055Z,144.00
2018-08-31T05:33:33.079Z,148.00
2018-08-31T05:34:33.101Z,156.00
2018-08-31T05:35:54.138Z,148.00
2018-08-31T05:36:33.162Z,148.00
2018-08-31T05:37:33.205Z,164.00
2018-08-31T05:38:33.218Z,172.00
2018-08-31T05:39:33.233Z,160.00
2018-08-31T05:40:33.254Z,168.00
2018-08-31T05:41:54.298Z,168.00
2018-08-31T05:42:33.377Z,172.00
2018-08-31T05:43:33.333Z,172.00
2018-08-31T05:44:33.435Z,172.00
2018-08-31T05:45:33.400Z,172.00
2018-08-31T05:46:33.439Z,168.00
2018-08-31T05:47:54.450Z,180.00
2018-08-31T05:48:33.471Z,172.00
2018-08-31T05:49:33.493Z,180.00
2018-08-31T05:50:33.505Z,188.00
2018-08-31T05:51:33.543Z,204.00
2018-08-31T05:52:33.578Z,212.00
2018-08-31T05:53:54.618Z,208.00
2018-08-31T05:54:33.627Z,204.00
2018-08-31T05:55:33.637Z,208.00
2018-08-31T05:56:33.691Z,212.00
2018-08-31T05:57:33.700Z,216.00
2018-08-31T05:58:33.723Z,216.00
2018-08-31T05:59:54.763Z,216.00
2018-08-31T06:00:33.769Z,204.00
2018-08-31T06:01:33.819Z,196.00
2018-08-31T06:02:33.844Z,196.00
2018-08-31T06:03:33.879Z,208.00
2018-08-31T06:04:33.883Z,192.00
2018-08-31T06:05:55.065Z,216.00
2018-08-31T06:06:33.943Z,236.00
2018-08-31T06:07:33.961Z,244.00
2018-08-31T06:08:33.984Z,240.00
2018-08-31T06:09:34.217Z,236.00
2018-08-31T06:10:34.039Z,240.00
2018-08-31T06:11:55.093Z,232.00
2018-08-31T06:12:34.185Z,232.00
2018-08-31T06:13:34.101Z,240.00
2018-08-31T06:14:34.144Z,244.00
2018-08-31T06:15:34.153Z,244.00
2018-08-31T06:16:34.200Z,252.00
2018-08-31T06:17:55.223Z,236.00
2018-08-31T06:18:34.232Z,248.00
2018-08-31T06:19:34.266Z,244.00
2018-08-31T06:20:34.289Z,244.00
2018-08-31T06:21:34.353Z,292.00
2018-08-31T06:22:34.408Z,340.00
2018-08-31T06:23:55.389Z,348.00
2018-08-31T06:24:34.399Z,360.00
2018-08-31T06:25:34.429Z,376.00
2018-08-31T06:26:34.449Z,360.00
2018-08-31T06:27:34.475Z,332.00
2018-08-31T06:28:34.493Z,392.00
2018-08-31T06:29:55.555Z,360.00
2018-08-31T06:30:34.545Z,356.00
2018-08-31T06:31:34.580Z,340.00
2018-08-31T06:32:34.605Z,312.00
2018-08-31T06:33:34.626Z,288.00
2018-08-31T06:34:34.675Z,292.00
2018-08-31T06:35:55.703Z,300.00
2018-08-31T06:36:34.717Z,272.00
2018-08-31T06:37:34.737Z,296.00
2018-08-31T06:38:34.758Z,332.00
2018-08-31T06:39:34.784Z,348.00
2018-08-31T06:40:34.843Z,296.00
2018-08-31T06:41:55.849Z,300.00
2018-08-31T06:42:34.857Z,328.00
2018-08-31T06:43:34.901Z,396.00
2018-08-31T06:44:34.922Z,360.00
2018-08-31T06:45:34.960Z,424.00
2018-08-31T06:46:34.987Z,384.00
2018-08-31T06:47:56.013Z,412.00
2018-08-31T06:48:35.026Z,316.00
2018-08-31T06:49:35.044Z,400.00
2018-08-31T06:50:35.081Z,348.00
2018-08-31T06:51:35.164Z,408.00
2018-08-31T06:52:35.151Z,452.00
2018-08-31T06:53:56.166Z,444.00
2018-08-31T06:54:35.181Z,432.00
2018-08-31T06:55:35.198Z,376.00
2018-08-31T06:56:35.235Z,368.00
2018-08-31T06:57:35.256Z,384.00
2018-08-31T06:58:35.307Z,336.00
2018-08-31T06:59:56.315Z,324.00
2018-08-31T07:00:35.325Z,308.00
2018-08-31T07:01:37.422Z,292.00
2018-08-31T07:02:35.385Z,316.00
2018-08-31T07:03:35.462Z,320.00
2018-08-31T07:04:35.439Z,336.00
2018-08-31T07:05:56.470Z,308.00
2018-08-31T07:06:35.474Z,292.00
2018-08-31T07:07:35.511Z,264.00
2018-08-31T07:08:35.582Z,284.00
2018-08-31T07:09:35.561Z,284.00
2018-08-31T07:10:35.597Z,356.00
2018-08-31T07:11:56.635Z,284.00
2018-08-31T07:12:35.644Z,300.00
2018-08-31T07:13:35.670Z,288.00
2018-08-31T07:14:35.691Z,304.00
2018-08-31T07:15:35.725Z,324.00
2018-08-31T07:16:35.747Z,380.00
2018-08-31T07:17:56.810Z,328.00
2018-08-31T07:18:35.797Z,328.00
2018-08-31T07:19:35.845Z,292.00
2018-08-31T07:20:35.858Z,272.00
2018-08-31T07:21:35.871Z,340.00
2018-08-31T07:22:35.910Z,304.00
2018-08-31T07:23:56.953Z,372.00
2018-08-31T07:24:35.953Z,360.00
2018-08-31T07:25:35.991Z,344.00
2018-08-31T07:26:36.027Z,352.00
2018-08-31T07:27:36.036Z,488.00
2018-08-31T07:28:36.051Z,488.00
2018-08-31T07:29:57.110Z,456.00
2018-08-31T07:30:36.121Z,448.00
2018-08-31T07:31:36.130Z,376.00
2018-08-31T07:32:36.246Z,392.00
2018-08-31T07:33:36.199Z,392.00
2018-08-31T07:34:36.219Z,348.00
2018-08-31T07:35:57.264Z,344.00
2018-08-31T07:36:36.265Z,316.00
2018-08-31T07:37:36.293Z,292.00
2018-08-31T07:38:36.321Z,280.00
2018-08-31T07:39:36.350Z,280.00
2018-08-31T07:40:36.466Z,284.00
2018-08-31T07:41:57.493Z,300.00
2018-08-31T07:42:36.427Z,328.00
2018-08-31T07:43:36.455Z,316.00
2018-08-31T07:44:36.475Z,296.00
2018-08-31T07:45:36.496Z,288.00
2018-08-31T07:46:36.544Z,292.00
2018-08-31T07:47:57.638Z,284.00
2018-08-31T07:48:36.579Z,240.00
2018-08-31T07:49:36.612Z,252.00
2018-08-31T07:50:36.643Z,256.00
2018-08-31T07:51:37.176Z,220.00
2018-08-31T07:52:36.682Z,204.00
2018-08-31T07:53:57.795Z,220.00
2018-08-31T07:54:36.757Z,224.00
2018-08-31T07:55:36.784Z,240.00
2018-08-31T07:56:36.796Z,260.00
2018-08-31T07:57:36.821Z,284.00
2018-08-31T07:58:36.852Z,288.00
2018-08-31T07:59:57.891Z,276.00
2018-08-31T08:00:36.893Z,268.00
2018-08-31T08:01:36.921Z,268.00
2018-08-31T08:02:36.943Z,328.00
2018-08-31T08:03:36.978Z,376.00
2018-08-31T08:04:37.008Z,432.00
2018-08-31T08:05:58.041Z,460.00
2018-08-31T08:06:37.046Z,480.00
2018-08-31T08:07:37.073Z,456.00
2018-08-31T08:08:37.110Z,424.00
2018-08-31T08:09:37.126Z,412.00
2018-08-31T08:10:37.157Z,380.00
2018-08-31T08:11:58.199Z,444.00
2018-08-31T08:12:37.264Z,496.00
2018-08-31T08:13:37.250Z,484.00
2018-08-31T08:14:37.277Z,344.00
2018-08-31T08:15:37.292Z,328.00
2018-08-31T08:16:37.304Z,352.00
2018-08-31T08:17:58.424Z,356.00
2018-08-31T08:18:37.359Z,324.00
2018-08-31T08:19:37.460Z,312.00
2018-08-31T08:20:37.423Z,336.00
2018-08-31T08:21:37.453Z,380.00
2018-08-31T08:22:37.458Z,360.00
2018-08-31T08:23:58.566Z,340.00
2018-08-31T08:24:37.539Z,352.00
2018-08-31T08:25:37.546Z,332.00
2018-08-31T08:26:37.581Z,324.00
2018-08-31T08:27:37.593Z,344.00
2018-08-31T08:28:37.629Z,352.00
2018-08-31T08:29:58.689Z,360.00
2018-08-31T08:30:37.677Z,384.00
2018-08-31T08:31:37.716Z,436.00
2018-08-31T08:32:37.730Z,480.00
2018-08-31T08:33:37.757Z,440.00
2018-08-31T08:34:37.793Z,468.00
2018-08-31T08:35:58.843Z,448.00
2018-08-31T08:36:37.835Z,496.00
2018-08-31T08:37:37.866Z,480.00
2018-08-31T08:38:37.896Z,404.00
2018-08-31T08:39:37.914Z,408.00
2018-08-31T08:40:37.936Z,364.00
2018-08-31T08:41:59.016Z,348.00
2018-08-31T08:42:38.056Z,276.00
2018-08-31T08:43:38.015Z,284.00
2018-08-31T08:44:38.693Z,316.00
2018-08-31T08:45:38.074Z,348.00
2018-08-31T08:46:38.103Z,320.00
2018-08-31T08:47:59.145Z,348.00
2018-08-31T08:48:38.321Z,380.00
2018-08-31T08:49:38.441Z,364.00
2018-08-31T08:50:38.198Z,380.00
2018-08-31T08:51:38.240Z,372.00
2018-08-31T08:52:38.300Z,404.00
2018-08-31T08:53:59.294Z,464.00
2018-08-31T08:54:38.312Z,452.00
2018-08-31T08:55:38.351Z,432.00
2018-08-31T08:56:38.363Z,420.00
2018-08-31T08:57:38.390Z,400.00
2018-08-31T08:58:38.481Z,348.00
2018-08-31T08:59:59.462Z,400.00
2018-08-31T09:00:38.459Z,408.00
2018-08-31T09:01:38.485Z,472.00
2018-08-31T09:02:38.521Z,500.00
2018-08-31T09:03:38.540Z,580.00
2018-08-31T09:04:38.564Z,664.00
2018-08-31T09:05:59.631Z,772.00
2018-08-31T09:06:38.629Z,752.00
2018-08-31T09:07:38.660Z,688.00
2018-08-31T09:08:38.695Z,752.00
2018-08-31T09:09:38.720Z,680.00
2018-08-31T09:10:38.727Z,664.00
2018-08-31T09:11:59.816Z,704.00
2018-08-31T09:12:38.777Z,684.00
2018-08-31T09:13:38.812Z,832.00
2018-08-31T09:14:38.821Z,812.00
2018-08-31T09:15:38.919Z,1056.00
2018-08-31T09:16:38.885Z,1044.00
2018-08-31T09:17:59.961Z,1508.00
2018-08-31T09:18:38.939Z,1412.00
2018-08-31T09:19:38.967Z,1280.00
2018-08-31T09:20:38.984Z,1344.00
2018-08-31T09:21:39.012Z,1472.00
2018-08-31T09:22:39.044Z,1476.00
2018-08-31T09:24:00.089Z,1580.00
2018-08-31T09:24:39.173Z,1412.00
2018-08-31T09:25:39.118Z,1476.00
2018-08-31T09:26:39.187Z,1412.00
2018-08-31T09:27:39.178Z,1080.00
2018-08-31T09:28:39.199Z,1148.00
2018-08-31T09:30:00.252Z,1244.00
2018-08-31T09:30:39.264Z,1060.00
2018-08-31T09:31:39.277Z,848.00
2018-08-31T09:32:39.368Z,772.00
2018-08-31T09:33:39.346Z,800.00
2018-08-31T09:34:39.363Z,852.00
2018-08-31T09:36:00.403Z,1120.00
2018-08-31T09:36:39.411Z,1156.00
2018-08-31T09:37:39.438Z,1280.00
2018-08-31T09:38:39.469Z,1144.00
2018-08-31T09:39:39.507Z,1176.00
2018-08-31T09:40:39.515Z,1076.00
2018-08-31T09:42:00.562Z,936.00
2018-08-31T09:42:39.575Z,792.00
2018-08-31T09:43:39.600Z,848.00
2018-08-31T09:44:39.621Z,928.00
2018-08-31T09:45:39.653Z,824.00
2018-08-31T09:46:39.671Z,896.00
2018-08-31T09:48:00.751Z,1216.00
2018-08-31T09:48:39.732Z,1460.00
2018-08-31T09:49:39.780Z,1640.00
2018-08-31T09:50:39.793Z,1840.00
2018-08-31T09:51:39.834Z,4100.00
2018-08-31T09:52:39.845Z,2812.00
2018-08-31T09:54:00.889Z,2488.00
2018-08-31T09:54:39.899Z,4752.00
2018-08-31T09:55:39.919Z,5660.00
2018-08-31T09:56:39.957Z,6024.00
2018-08-31T09:57:39.983Z,4692.00
2018-08-31T09:58:40.005Z,3828.00
2018-08-31T10:00:01.050Z,1716.00
2018-08-31T10:00:40.060Z,956.00
2018-08-31T10:01:40.113Z,1680.00
2018-08-31T10:02:40.107Z,744.00
2018-08-31T10:03:40.132Z,632.00
2018-08-31T10:04:40.167Z,628.00
2018-08-31T10:06:01.207Z,680.00
2018-08-31T10:06:40.216Z,716.00
2018-08-31T10:07:40.252Z,748.00
2018-08-31T10:08:40.295Z,824.00
2018-08-31T10:09:40.297Z,1160.00
2018-08-31T10:10:40.399Z,1924.00
2018-08-31T10:12:01.372Z,1312.00
2018-08-31T10:12:40.393Z,1488.00
2018-08-31T10:13:40.419Z,2944.00
2018-08-31T10:14:40.433Z,3992.00
2018-08-31T10:15:40.455Z,3544.00
2018-08-31T10:16:40.489Z,1440.00
2018-08-31T10:18:01.530Z,1844.00
2018-08-31T10:18:40.544Z,2688.00
2018-08-31T10:19:40.570Z,2928.00
2018-08-31T10:20:40.610Z,3920.00
2018-08-31T10:21:41.214Z,2424.00
2018-08-31T10:22:40.648Z,2764.00
2018-08-31T10:24:01.696Z,1844.00
2018-08-31T10:24:40.701Z,1832.00
2018-08-31T10:25:40.730Z,1960.00
2018-08-31T10:26:40.776Z,1816.00
2018-08-31T10:27:40.792Z,2876.00
2018-08-31T10:28:40.822Z,2176.00
2018-08-31T10:30:01.941Z,1180.00
2018-08-31T10:30:40.941Z,1068.00
2018-08-31T10:31:40.896Z,1216.00
2018-08-31T10:32:40.926Z,1328.00
2018-08-31T10:33:40.965Z,1764.00
2018-08-31T10:34:40.982Z,2440.00
2018-08-31T10:36:02.043Z,2444.00
2018-08-31T10:36:41.038Z,2228.00
2018-08-31T10:37:41.074Z,3492.00
2018-08-31T10:38:41.104Z,2584.00
2018-08-31T10:39:41.108Z,2748.00
2018-08-31T10:40:41.139Z,3336.00
2018-08-31T10:42:02.195Z,3848.00
2018-08-31T10:42:41.201Z,5596.00
2018-08-31T10:43:41.226Z,7068.00
2018-08-31T10:44:41.266Z,6668.00
2018-08-31T10:45:41.329Z,6016.00
2018-08-31T10:46:41.321Z,6568.00
2018-08-31T10:48:02.349Z,4460.00
2018-08-31T10:48:41.364Z,4160.00
2018-08-31T10:49:41.387Z,9184.00
2018-08-31T10:50:41.416Z,9220.00
2018-08-31T10:51:41.456Z,10496.00
2018-08-31T10:52:41.490Z,10300.00
2018-08-31T10:54:02.567Z,8940.00
2018-08-31T10:54:41.523Z,7588.00
2018-08-31T10:55:41.568Z,9320.00
2018-08-31T10:56:41.594Z,7292.00
2018-08-31T10:57:41.621Z,2492.00
2018-08-31T10:58:41.650Z,10816.00
2018-08-31T11:00:02.693Z,11228.00
2018-08-31T11:00:41.693Z,10868.00
2018-08-31T11:01:41.728Z,10228.00
2018-08-31T11:02:41.764Z,11008.00
2018-08-31T11:03:41.806Z,11932.00
2018-08-31T11:04:41.833Z,12204.00
2018-08-31T11:06:02.866Z,11444.00
2018-08-31T11:06:41.883Z,8752.00
2018-08-31T11:07:41.914Z,8696.00
2018-08-31T11:08:41.947Z,10548.00
2018-08-31T11:09:41.970Z,12576.00
2018-08-31T11:10:41.992Z,4736.00
2018-08-31T11:12:03.050Z,7296.00
2018-08-31T11:12:42.173Z,16320.00
2018-08-31T11:13:42.089Z,17856.00
2018-08-31T11:14:42.110Z,18112.00
2018-08-31T11:15:42.161Z,19840.00
2018-08-31T11:16:42.168Z,20864.00
2018-08-31T11:18:03.237Z,22240.00
2018-08-31T11:18:42.272Z,23104.00
2018-08-31T11:19:42.274Z,22304.00
2018-08-31T11:20:42.294Z,14620.00
2018-08-31T11:21:42.400Z,1592.00
2018-08-31T11:22:42.369Z,1820.00
2018-08-31T11:24:03.418Z,22816.00
2018-08-31T11:24:42.420Z,22816.00
2018-08-31T11:25:42.455Z,18944.00
2018-08-31T11:26:42.506Z,1652.00
2018-08-31T11:27:42.571Z,23904.00
2018-08-31T11:28:42.546Z,25344.00
2018-08-31T11:30:03.591Z,25408.00
2018-08-31T11:30:42.598Z,26528.00
2018-08-31T11:31:42.642Z,26816.00
2018-08-31T11:32:42.671Z,26912.00
2018-08-31T11:33:42.712Z,1792.00
2018-08-31T11:34:42.731Z,1132.00
2018-08-31T11:36:03.788Z,880.00
2018-08-31T11:36:42.802Z,1060.00
2018-08-31T11:37:42.828Z,22688.00
2018-08-31T11:38:42.859Z,1112.00
2018-08-31T11:39:42.882Z,1148.00
2018-08-31T11:40:42.918Z,1240.00
2018-08-31T11:42:03.970Z,1780.00
2018-08-31T11:42:42.988Z,984.00
2018-08-31T11:43:43.009Z,916.00
2018-08-31T11:44:43.037Z,700.00
2018-08-31T11:45:43.087Z,23712.00
2018-08-31T11:46:43.103Z,2040.00
2018-08-31T11:48:04.145Z,752.00
2018-08-31T11:48:43.168Z,604.00
2018-08-31T11:49:43.198Z,18688.00
2018-08-31T11:50:43.224Z,1188.00
2018-08-31T11:51:43.286Z,796.00
2018-08-31T11:52:43.281Z,1428.00
2018-08-31T11:54:04.328Z,1388.00
2018-08-31T11:54:43.345Z,1992.00
2018-08-31T11:55:43.387Z,896.00
2018-08-31T11:56:43.400Z,632.00
2018-08-31T11:57:43.454Z,564.00
2018-08-31T11:58:43.473Z,1380.00
2018-08-31T12:00:04.517Z,1396.00
2018-08-31T12:00:43.528Z,760.00
2018-08-31T12:01:43.563Z,604.00
2018-08-31T12:02:43.591Z,608.00
2018-08-31T12:03:43.618Z,1012.00
2018-08-31T12:04:43.660Z,1112.00
2018-08-31T12:06:04.686Z,1116.00
2018-08-31T12:06:43.708Z,1132.00
2018-08-31T12:07:43.736Z,1100.00
2018-08-31T12:08:43.757Z,1016.00
2018-08-31T12:09:43.803Z,1228.00
2018-08-31T12:10:43.817Z,1188.00
2018-08-31T12:12:04.898Z,1008.00
2018-08-31T12:12:43.876Z,620.00
2018-08-31T12:13:43.898Z,620.00
2018-08-31T12:14:43.941Z,824.00
2018-08-31T12:15:43.976Z,836.00
2018-08-31T12:16:43.998Z,624.00
2018-08-31T12:18:05.050Z,660.00
2018-08-31T12:18:44.055Z,912.00
2018-08-31T12:19:44.088Z,1024.00
2018-08-31T12:20:44.114Z,980.00
2018-08-31T12:21:44.152Z,968.00
2018-08-31T12:22:44.161Z,948.00
2018-08-31T12:24:05.224Z,876.00
2018-08-31T12:24:44.216Z,812.00
2018-08-31T12:25:44.259Z,796.00
2018-08-31T12:26:44.300Z,888.00
2018-08-31T12:27:44.307Z,836.00
2018-08-31T12:28:44.348Z,636.00
2018-08-31T12:30:05.391Z,552.00
2018-08-31T12:30:44.463Z,688.00
2018-08-31T12:31:44.418Z,1048.00
2018-08-31T12:32:44.505Z,1008.00
2018-08-31T12:33:44.479Z,928.00
2018-08-31T12:34:44.535Z,1052.00
2018-08-31T12:36:05.556Z,1084.00
2018-08-31T12:36:44.561Z,992.00
2018-08-31T12:37:44.624Z,972.00
2018-08-31T12:38:44.615Z,940.00
2018-08-31T12:39:44.661Z,824.00
2018-08-31T12:40:44.675Z,796.00